Time;durP1;ratioP1;P1;durP2;ratioP2;P2;SDS_P1;SDS_P2;PMS_P1;PMS_P2;Temp;Humidity;BMP_temperature;BMP_pressure;BME280_temperature;BME280_humidity;BME280_pressure;Samples;Min_cycle;Max_cycle;Signal;HPM_P1;HPM_P2
2022/06/24 00:12:02;;;;;;;7.10;4.35;;;;;;;16.83;57.86;100044.88;30740843;28;96621;-63
2022/06/24 00:27:14;;;;;;;7.97;4.63;;;;;;;16.58;58.71;100042.13;30738102;28;96829;-63
2022/06/24 00:42:16;;;;;;;;;;;;;;;16.37;59.33;100035.16;30737962;28;97363;-60
2022/06/24 00:57:17;;;;;;;7.67;4.63;;;;;;;16.16;60.25;100029.00;30737392;28;97216;-68
2022/06/24 01:12:17;;;;;;;6.93;4.80;;;;;;;16.01;61.06;100023.06;30733248;28;96672;-64
2022/06/24 01:27:18;;;;;;;6.32;4.53;;;;;;;15.83;61.60;100019.16;30733026;28;96727;-64
2022/06/24 01:42:19;;;;;;;6.67;5.07;;;;;;;15.60;62.28;100016.06;30732393;28;96656;-67
2022/06/24 01:57:19;;;;;;;8.32;4.75;;;;;;;15.43;63.15;100003.03;30731017;28;97393;-67
2022/06/24 02:27:38;;;;;;;11.37;5.43;;;;;;;15.14;64.17;100005.09;30750588;28;97309;-65
2022/06/24 02:42:39;;;;;;;5.97;5.28;;;;;;;15.02;64.57;99991.47;30748617;28;96838;-63
2022/06/24 02:57:39;;;;;;;9.85;5.53;;;;;;;14.97;64.96;99998.50;30746966;28;96683;-66
2022/06/24 03:12:39;;;;;;;10.40;5.45;;;;;;;14.95;65.51;99987.13;30744273;28;97911;-63
2022/06/24 03:27:40;;;;;;;10.23;5.93;;;;;;;15.04;65.77;99993.94;30741582;28;96864;-62
2022/06/24 03:42:40;;;;;;;7.13;5.50;;;;;;;15.17;66.05;99993.97;30740675;28;96682;-61
2022/06/24 03:57:41;;;;;;;7.03;5.78;;;;;;;15.42;65.85;100001.41;30739471;28;96767;-66
2022/06/24 04:12:42;;;;;;;7.35;5.32;;;;;;;15.71;65.70;100010.06;30786302;28;97121;-62
2022/06/24 04:27:42;;;;;;;9.23;6.25;;;;;;;16.06;65.68;100010.66;30851739;28;97363;-64
2022/06/24 04:42:45;;;;;;;10.70;6.18;;;;;;;16.51;65.40;100007.19;30831663;28;98387;-63
2022/06/24 04:57:46;;;;;;;9.93;6.00;;;;;;;17.01;64.56;100008.38;30843199;28;97478;-65
2022/06/24 05:12:46;;;;;;;9.48;5.40;;;;;;;17.61;63.37;99996.34;30845088;28;96882;-63
2022/06/24 05:27:48;;;;;;;11.43;5.53;;;;;;;18.25;61.47;99983.44;30851905;28;98582;-61
2022/06/24 05:42:48;;;;;;;7.55;4.68;;;;;;;18.95;59.68;99995.63;30849086;28;97381;-62
2022/06/24 05:57:48;;;;;;;10.45;5.15;;;;;;;19.60;57.63;99986.66;30868640;28;96717;-66
2022/06/24 06:12:49;;;;;;;9.35;4.68;;;;;;;20.22;55.50;99982.63;30869523;28;97445;-63
2022/06/24 06:27:50;;;;;;;9.98;4.22;;;;;;;20.67;53.01;99978.34;30867633;28;96785;-62
2022/06/24 06:42:55;;;;;;;;;;;;;;;21.20;50.66;99975.47;30867286;28;96756;-67
2022/06/24 06:57:55;;;;;;;6.60;3.30;;;;;;;21.63;48.82;99965.88;30866959;28;97312;-68
2022/06/24 07:12:55;;;;;;;6.13;2.70;;;;;;;22.29;46.42;99944.22;30864982;28;96633;-66
2022/06/24 07:27:56;;;;;;;4.77;2.70;;;;;;;22.87;44.26;99922.03;30860756;28;96722;-64
2022/06/24 07:42:56;;;;;;;5.70;2.57;;;;;;;23.40;42.10;99914.03;30854810;28;97634;-67
2022/06/24 07:57:57;;;;;;;3.33;2.33;;;;;;;24.09;41.56;99903.22;30859254;28;97525;-69
2022/06/24 08:12:57;;;;;;;;;;;;;;;24.56;39.92;99896.78;30859363;28;97154;-70
2022/06/24 08:27:58;;;;;;;8.20;3.30;;;;;;;24.95;39.05;99871.75;30858444;28;97137;-69
2022/06/24 08:43:00;;;;;;;4.45;2.75;;;;;;;25.63;38.11;99865.09;30853910;28;96728;-67
2022/06/24 08:58:08;;;;;;;5.53;2.53;;;;;;;26.11;35.99;99874.75;30854246;28;97109;-66
2022/06/24 09:13:20;;;;;;;6.43;2.63;;;;;;;26.61;35.21;99861.81;30853219;28;97356;-64
2022/06/24 09:28:31;;;;;;;4.80;2.30;;;;;;;27.08;33.42;99831.34;30851806;28;96892;-71
2022/06/24 09:43:32;;;;;;;2.93;2.10;;;;;;;27.67;32.66;99824.69;30852543;28;96660;-63
2022/06/24 09:58:34;;;;;;;3.83;2.50;;;;;;;28.00;31.21;99824.81;30852124;28;97137;-64
2022/06/24 10:13:35;;;;;;;6.30;2.67;;;;;;;28.45;31.26;99799.75;30850360;28;96665;-64
2022/06/24 10:28:57;;;;;;;4.77;2.60;;;;;;;28.39;30.36;99792.75;30847056;28;96841;-63
2022/06/24 10:44:22;;;;;;;5.40;3.07;;;;;;;28.84;29.57;99770.31;30862635;28;96836;-64
2022/06/24 10:59:22;;;;;;;7.83;2.60;;;;;;;29.25;28.62;99775.03;30864177;28;96777;-70
2022/06/24 11:14:24;;;;;;;5.20;2.38;;;;;;;29.71;27.63;99748.53;30863525;28;96694;-68
2022/06/24 11:29:25;;;;;;;4.67;2.13;;;;;;;30.13;27.18;99719.03;30862124;28;98102;-66
2022/06/24 11:44:36;;;;;;;5.00;2.15;;;;;;;30.65;26.91;99718.53;30861403;28;97153;-70
2022/06/24 11:59:37;;;;;;;7.23;2.37;;;;;;;30.76;27.31;99708.06;30863159;28;97323;-62
2022/06/24 12:14:38;;;;;;;3.60;2.43;;;;;;;30.42;26.78;99700.44;30832605;28;97691;-64
2022/06/24 12:29:42;;;;;;;4.40;2.07;;;;;;;30.57;26.50;99680.81;30843870;28;97059;-65
2022/06/24 12:44:44;;;;;;;4.93;1.83;;;;;;;30.44;26.31;99659.72;30853247;28;96705;-64
2022/06/24 12:59:45;;;;;;;5.60;2.03;;;;;;;30.47;26.00;99628.88;30847883;28;96762;-68
2022/06/24 13:14:45;;;;;;;3.33;1.85;;;;;;;30.41;26.77;99600.72;30842352;28;107028;-65
2022/06/24 13:29:45;;;;;;;4.13;1.98;;;;;;;30.74;26.06;99594.84;30843171;28;97455;-64
2022/06/24 13:44:46;;;;;;;3.92;2.22;;;;;;;30.81;26.38;99594.38;30841962;28;98099;-69
2022/06/24 13:59:50;;;;;;;5.50;1.80;;;;;;;30.57;27.19;99587.38;30840585;28;97280;-67
2022/06/24 14:14:50;;;;;;;5.60;2.03;;;;;;;30.59;26.68;99573.31;30851460;28;97678;-65
2022/06/24 14:29:51;;;;;;;2.80;1.48;;;;;;;30.24;26.20;99582.22;30821522;28;105423;-66
2022/06/24 14:44:51;;;;;;;4.15;1.90;;;;;;;29.88;28.14;99544.75;30866910;28;100634;-64
2022/06/24 14:59:51;;;;;;;3.00;1.83;;;;;;;29.73;27.54;99512.19;30867331;28;96594;-71
2022/06/24 15:14:52;;;;;;;3.05;1.83;;;;;;;29.78;26.66;99503.81;30860652;28;98555;-72
2022/06/24 15:29:52;;;;;;;2.40;1.85;;;;;;;29.77;26.84;99489.31;30853345;28;97493;-70
2022/06/24 15:44:54;;;;;;;7.80;2.30;;;;;;;29.82;27.61;99491.09;30851642;28;97233;-69
2022/06/24 15:59:55;;;;;;;3.27;1.90;;;;;;;29.69;27.72;99507.34;30852337;28;96630;-66
2022/06/24 16:14:56;;;;;;;2.30;2.00;;;;;;;29.63;28.71;99516.00;30753163;28;97481;-71
2022/06/24 16:29:56;;;;;;;4.87;1.90;;;;;;;30.24;28.23;99519.06;30783011;28;97290;-72
2022/06/24 16:44:58;;;;;;;8.35;2.17;;;;;;;29.89;28.16;99502.44;30855091;28;97493;-72
2022/06/24 16:59:59;;;;;;;5.93;2.40;;;;;;;29.33;28.98;99491.78;30853578;28;97560;-66
2022/06/24 17:14:59;;;;;;;4.70;2.60;;;;;;;28.79;30.05;99488.16;30849574;28;97512;-70
2022/06/24 17:30:00;;;;;;;4.25;2.55;;;;;;;28.24;30.95;99495.31;30839641;28;97244;-67
2022/06/24 17:45:00;;;;;;;5.32;2.83;;;;;;;27.84;31.72;99495.78;30840092;28;97162;-69
2022/06/24 18:00:01;;;;;;;4.32;2.67;;;;;;;27.43;32.34;99491.03;30851151;28;96690;-72
2022/06/24 18:15:02;;;;;;;6.30;2.70;;;;;;;26.90;33.74;99497.63;30834918;28;97551;-71
2022/06/24 18:30:03;;;;;;;5.60;2.50;;;;;;;26.58;34.54;99506.50;30834704;28;97016;-67
2022/06/24 18:45:04;;;;;;;5.13;2.60;;;;;;;26.47;34.91;99505.81;30836605;28;96736;-73
2022/06/24 19:00:05;;;;;;;3.63;2.65;;;;;;;26.07;35.83;99516.16;30874517;28;96711;-74
2022/06/24 19:15:07;;;;;;;6.73;3.07;;;;;;;25.75;36.84;99515.63;30864583;28;97028;-73
2022/06/24 19:30:08;;;;;;;8.50;3.60;;;;;;;25.70;37.26;99532.03;30853428;28;97411;-68
2022/06/24 19:45:09;;;;;;;5.53;3.50;;;;;;;24.83;38.58;99538.91;30852887;28;96687;-67
2022/06/24 20:00:10;;;;;;;8.45;4.45;;;;;;;24.48;40.28;99535.22;30850308;28;96921;-69
2022/06/24 20:15:10;;;;;;;6.43;5.00;;;;;;;24.28;41.34;99527.97;30849381;28;97541;-69
2022/06/24 20:30:10;;;;;;;11.85;5.95;;;;;;;23.60;42.47;99538.13;30847390;28;97205;-69
2022/06/24 20:45:11;;;;;;;9.52;5.45;;;;;;;22.93;44.17;99532.59;30847754;28;98145;-70
2022/06/24 21:00:12;;;;;;;5.85;4.65;;;;;;;22.91;44.66;99536.66;30846986;28;97333;-66
2022/06/24 21:15:13;;;;;;;7.13;4.75;;;;;;;22.89;44.93;99550.50;30845440;28;97608;-70
2022/06/24 21:30:13;;;;;;;7.00;5.07;;;;;;;22.28;45.78;99554.59;30843196;28;97433;-72
2022/06/24 21:45:14;;;;;;;5.77;4.73;;;;;;;21.87;47.01;99554.38;30833967;28;98238;-68
2022/06/24 22:00:14;;;;;;;5.27;4.37;;;;;;;21.55;47.88;99557.09;30824898;28;98362;-70
2022/06/24 22:15:15;;;;;;;8.40;4.47;;;;;;;21.56;48.34;99545.19;30899617;28;97209;-68
2022/06/24 22:30:16;;;;;;;4.73;4.03;;;;;;;21.37;48.97;99536.59;30887179;28;97385;-68
2022/06/24 22:45:16;;;;;;;5.93;3.80;;;;;;;21.22;49.41;99540.78;30871639;28;96960;-68
2022/06/24 23:00:16;;;;;;;10.57;4.68;;;;;;;21.18;49.24;99536.97;30870694;28;98090;-69
2022/06/24 23:15:17;;;;;;;4.85;3.97;;;;;;;20.97;49.90;99535.97;30868851;28;96794;-68
2022/06/24 23:30:17;;;;;;;7.60;3.50;;;;;;;21.26;49.77;99539.19;30866620;28;96709;-71
2022/06/24 23:45:18;;;;;;;6.57;3.90;;;;;;;21.01;49.89;99539.78;30865191;28;97406;-72
